Time;durP1;ratioP1;P1;durP2;ratioP2;P2;SDS_P1;SDS_P2;PMS_P1;PMS_P2;Temp;Humidity;BMP_temperature;BMP_pressure;BME280_temperature;BME280_humidity;BME280_pressure;Samples;Min_cycle;Max_cycle;Signal;HPM_P1;HPM_P2
2023/03/30 00:01:33;;;;;;;63.03;57.07;;;9.30;93.40;;;;;;5027273;28;20186;-90
2023/03/30 00:03:58;;;;;;;64.27;58.17;;;9.30;93.40;;;;;;5010075;28;20216;-90
2023/03/30 00:06:25;;;;;;;65.43;58.97;;;9.30;93.40;;;;;;5008134;28;20181;-90
2023/03/30 00:08:55;;;;;;;62.43;55.80;;;9.30;93.30;;;;;;5010015;28;20209;-90
2023/03/30 00:11:22;;;;;;;62.20;55.67;;;9.20;93.30;;;;;;5027421;28;20154;-90
2023/03/30 00:13:49;;;;;;;62.80;56.50;;;9.20;93.40;;;;;;5009710;28;20264;-90
2023/03/30 00:16:16;;;;;;;59.73;53.77;;;9.20;93.40;;;;;;5010655;28;20647;-90
2023/03/30 00:18:43;;;;;;;59.47;53.60;;;9.30;93.40;;;;;;5010089;28;20261;-90
2023/03/30 00:21:09;;;;;;;60.17;54.23;;;9.30;93.40;;;;;;5008754;28;20181;-90
2023/03/30 00:23:36;;;;;;;62.07;56.10;;;9.30;93.40;;;;;;5009948;28;20264;-90
2023/03/30 00:26:01;;;;;;;61.30;55.13;;;9.30;93.40;;;;;;5027196;28;20180;-90
2023/03/30 00:28:29;;;;;;;61.67;55.83;;;9.30;93.40;;;;;;5010878;28;20197;-90
2023/03/30 00:30:55;;;;;;;60.50;53.90;;;9.30;93.40;;;;;;5031180;28;20189;-90
2023/03/30 00:33:21;;;;;;;60.30;54.07;;;9.30;93.40;;;;;;5013704;28;20652;-90
2023/03/30 00:35:55;;;;;;;58.50;52.67;;;9.30;93.40;;;;;;5014298;28;20231;-90
2023/03/30 00:38:21;;;;;;;57.17;51.57;;;9.40;93.40;;;;;;5010385;28;20737;-90
2023/03/30 00:40:56;;;;;;;59.20;53.20;;;9.40;93.50;;;;;;5011680;28;20200;-90
2023/03/30 00:43:22;;;;;;;59.07;53.33;;;9.40;93.40;;;;;;5007662;28;20590;-90
2023/03/30 00:45:49;;;;;;;57.03;51.40;;;9.30;93.40;;;;;;5010510;28;20551;-90
2023/03/30 00:48:19;;;;;;;57.83;52.30;;;9.40;93.40;;;;;;5010560;28;20193;-90
2023/03/30 00:50:50;;;;;;;58.83;52.70;;;9.40;93.40;;;;;;5009909;28;20201;-90
2023/03/30 00:53:30;;;;;;;56.37;51.17;;;9.40;93.40;;;;;;5026216;28;20233;-90
2023/03/30 00:55:57;;;;;;;51.70;46.60;;;9.40;93.30;;;;;;5009693;28;20244;-90
2023/03/30 00:58:24;;;;;;;53.43;48.37;;;9.40;93.30;;;;;;5010783;28;20197;-90
2023/03/30 01:00:50;;;;;;;52.80;47.80;;;9.40;93.30;;;;;;5012289;28;20177;-90
2023/03/30 01:03:37;;;;;;;52.30;47.60;;;9.40;93.30;;;;;;5011507;28;20181;-90
2023/03/30 01:06:06;;;;;;;50.93;46.23;;;9.50;93.30;;;;;;5010942;28;20178;-90
2023/03/30 01:08:32;;;;;;;52.17;46.93;;;9.40;93.20;;;;;;5026798;28;20284;-90
2023/03/30 01:11:00;;;;;;;51.20;46.27;;;9.40;93.20;;;;;;5010964;28;20173;-90
2023/03/30 01:13:27;;;;;;;49.07;44.50;;;9.40;93.20;;;;;;5009261;28;20199;-90
2023/03/30 01:16:05;;;;;;;49.90;45.13;;;9.40;93.20;;;;;;5011272;28;20255;-90
2023/03/30 01:18:36;;;;;;;49.83;45.33;;;9.50;93.20;;;;;;5009632;28;20208;-90
2023/03/30 01:21:14;;;;;;;52.00;46.87;;;9.40;93.10;;;;;;5007958;28;20165;-90
2023/03/30 01:24:14;;;;;;;50.00;45.40;;;9.40;93.10;;;;;;5027275;28;20643;-90
2023/03/30 01:26:54;;;;;;;51.03;46.07;;;9.30;93.10;;;;;;5006957;28;20177;-90
2023/03/30 01:29:35;;;;;;;50.90;45.87;;;9.40;93.20;;;;;;5007323;28;20236;-90
2023/03/30 01:32:04;;;;;;;51.30;46.50;;;9.40;93.20;;;;;;5031017;28;20222;-90
2023/03/30 01:34:48;;;;;;;50.80;46.20;;;9.50;93.20;;;;;;5015074;28;20249;-90
2023/03/30 01:37:34;;;;;;;51.17;46.13;;;9.50;93.20;;;;;;5012047;28;20185;-90
2023/03/30 01:40:26;;;;;;;52.57;47.70;;;9.40;93.10;;;;;;5010686;28;20182;-90
2023/03/30 01:43:17;;;;;;;48.87;44.73;;;9.40;93.10;;;;;;5010447;28;20173;-90
2023/03/30 01:45:54;;;;;;;47.73;43.03;;;9.40;93.20;;;;;;5028666;28;20178;-90
2023/03/30 01:49:02;;;;;;;51.67;46.57;;;9.30;93.40;;;;;;5013116;28;20255;-90
2023/03/30 01:51:37;;;;;;;51.67;46.87;;;9.30;93.50;;;;;;5007882;28;20205;-91
2023/03/30 01:54:27;;;;;;;48.87;43.97;;;9.40;93.50;;;;;;5018038;28;20171;-91
2023/03/30 01:57:03;;;;;;;52.67;47.77;;;9.30;93.60;;;;;;5015015;28;20170;-90
2023/03/30 01:59:37;;;;;;;49.83;45.10;;;9.30;93.70;;;;;;5011350;28;20193;-91
2023/03/30 02:02:05;;;;;;;51.80;46.87;;;9.30;93.70;;;;;;5013293;28;20172;-91
2023/03/30 02:04:36;;;;;;;52.50;47.70;;;9.40;93.80;;;;;;5034135;28;20189;-91
2023/03/30 02:07:07;;;;;;;53.60;48.83;;;9.40;93.80;;;;;;5014538;28;20166;-91
2023/03/30 02:09:38;;;;;;;52.87;48.33;;;9.40;93.70;;;;;;5011108;28;20205;-91
2023/03/30 02:12:05;;;;;;;54.00;49.27;;;9.40;93.80;;;;;;5012134;28;20181;-91
2023/03/30 02:14:33;;;;;;;55.03;49.73;;;9.40;93.90;;;;;;5013087;28;20157;-90
2023/03/30 02:17:10;;;;;;;53.17;48.47;;;9.30;93.90;;;;;;5012477;28;20178;-91
2023/03/30 02:19:37;;;;;;;56.03;51.17;;;9.40;94.00;;;;;;5012589;28;20201;-91
2023/03/30 02:22:03;;;;;;;59.00;53.67;;;9.40;94.00;;;;;;5032867;28;20157;-92
2023/03/30 02:24:32;;;;;;;56.23;51.07;;;9.50;94.10;;;;;;5014001;28;20181;-91
2023/03/30 02:27:00;;;;;;;58.00;52.93;;;9.50;94.00;;;;;;5034953;28;20153;-91
2023/03/30 02:29:27;;;;;;;55.80;50.97;;;9.50;94.10;;;;;;5016706;28;20213;-91
2023/03/30 02:31:56;;;;;;;57.23;52.00;;;9.50;94.00;;;;;;5015418;28;20178;-91
2023/03/30 02:35:01;;;;;;;56.73;51.60;;;9.50;94.00;;;;;;5018222;28;20180;-90
2023/03/30 02:37:52;;;;;;;56.83;51.77;;;9.50;94.00;;;;;;5019145;28;20193;-91
2023/03/30 02:40:38;;;;;;;54.67;49.97;;;9.50;94.00;;;;;;5018432;28;20161;-91
2023/03/30 02:43:25;;;;;;;57.10;52.10;;;9.40;94.00;;;;;;4990152;28;20269;-91
2023/03/30 02:46:32;;;;;;;55.10;50.47;;;9.40;94.00;;;;;;5018313;28;20234;-91
2023/03/30 02:49:10;;;;;;;59.73;54.37;;;9.40;94.00;;;;;;5015548;28;20224;-91
2023/03/30 02:52:11;;;;;;;58.90;53.70;;;9.50;94.10;;;;;;5019466;28;20177;-91
2023/03/30 02:55:17;;;;;;;58.97;53.73;;;9.50;94.00;;;;;;4979452;28;20169;-90
2023/03/30 02:58:07;;;;;;;57.87;52.70;;;9.50;94.10;;;;;;5037854;28;20181;-91
2023/03/30 03:01:01;;;;;;;59.83;54.93;;;9.50;94.10;;;;;;5022249;28;20279;-91
2023/03/30 03:03:37;;;;;;;59.40;54.33;;;9.50;94.10;;;;;;5021960;28;20189;-91
2023/03/30 03:06:04;;;;;;;57.53;52.63;;;9.50;94.00;;;;;;5020478;28;20141;-91
2023/03/30 03:08:34;;;;;;;59.67;54.60;;;9.50;94.00;;;;;;5022618;28;20269;-90
2023/03/30 03:11:00;;;;;;;57.17;52.07;;;9.50;94.00;;;;;;5023645;28;20181;-90
2023/03/30 03:13:26;;;;;;;60.10;54.83;;;9.50;94.00;;;;;;5023723;28;20236;-90
2023/03/30 03:15:55;;;;;;;59.97;55.03;;;9.50;94.00;;;;;;5023831;28;20233;-90
2023/03/30 03:18:21;;;;;;;61.73;56.73;;;9.40;93.90;;;;;;5023109;28;20232;-91
2023/03/30 03:20:46;;;;;;;58.57;53.67;;;9.30;93.80;;;;;;5021836;28;20185;-91
2023/03/30 03:23:12;;;;;;;60.57;55.73;;;9.30;93.90;;;;;;5022280;28;20170;-90
2023/03/30 03:25:37;;;;;;;57.00;51.97;;;9.30;93.90;;;;;;5022042;28;20170;-90
2023/03/30 03:28:03;;;;;;;57.77;52.30;;;9.20;93.90;;;;;;5021231;28;20276;-91
2023/03/30 03:30:29;;;;;;;58.83;54.13;;;9.20;93.90;;;;;;5018097;28;20208;-91
2023/03/30 03:32:55;;;;;;;59.87;54.53;;;9.30;94.00;;;;;;5021252;28;20204;-90
2023/03/30 03:35:21;;;;;;;60.97;56.00;;;9.30;93.90;;;;;;5020503;28;20157;-91
2023/03/30 03:37:47;;;;;;;57.73;52.30;;;9.20;93.90;;;;;;5019895;28;20224;-91
2023/03/30 03:40:13;;;;;;;55.70;51.17;;;9.20;93.90;;;;;;5036009;28;20178;-91
2023/03/30 03:42:39;;;;;;;59.23;54.30;;;9.20;93.90;;;;;;5035461;28;20169;-90
2023/03/30 03:45:06;;;;;;;55.73;51.03;;;9.20;93.90;;;;;;5016142;28;20178;-91
2023/03/30 03:47:33;;;;;;;53.40;49.13;;;9.10;93.90;;;;;;5016344;28;20199;-91
2023/03/30 03:50:02;;;;;;;57.17;52.13;;;9.20;93.90;;;;;;5018121;28;20215;-91
2023/03/30 03:52:27;;;;;;;58.17;53.20;;;9.20;93.90;;;;;;5018594;28;20173;-91
2023/03/30 03:54:53;;;;;;;55.77;51.00;;;9.20;93.90;;;;;;5019500;28;20200;-90
2023/03/30 03:57:18;;;;;;;54.73;49.67;;;9.20;94.00;;;;;;5019441;28;20178;-90
2023/03/30 03:59:44;;;;;;;55.53;50.73;;;9.20;93.90;;;;;;5034638;28;20185;-91
2023/03/30 04:02:10;;;;;;;54.97;50.43;;;9.20;94.00;;;;;;5018261;28;20245;-91
2023/03/30 04:04:35;;;;;;;55.37;50.07;;;9.20;94.00;;;;;;5034143;28;20173;-91
2023/03/30 04:07:01;;;;;;;55.03;50.37;;;9.30;94.00;;;;;;5018890;28;20170;-91
2023/03/30 04:09:27;;;;;;;52.03;47.00;;;9.30;94.00;;;;;;5016823;28;20209;-91
2023/03/30 04:11:52;;;;;;;52.63;47.90;;;9.30;94.00;;;;;;5019052;28;20174;-91
2023/03/30 04:14:18;;;;;;;52.57;47.70;;;9.30;94.00;;;;;;5034245;28;20185;-91
2023/03/30 04:16:43;;;;;;;54.60;49.43;;;9.30;93.90;;;;;;5017545;28;20192;-91
2023/03/30 04:19:11;;;;;;;52.87;48.23;;;9.30;93.90;;;;;;5017299;28;20269;-91
2023/03/30 04:21:39;;;;;;;52.23;47.73;;;9.30;94.00;;;;;;5034412;28;20173;-90
2023/03/30 04:24:08;;;;;;;54.63;49.50;;;9.30;93.90;;;;;;5019723;28;20192;-91
2023/03/30 04:26:34;;;;;;;54.80;49.80;;;9.30;93.90;;;;;;5018330;28;20156;-91
2023/03/30 04:29:00;;;;;;;52.13;47.50;;;9.30;93.90;;;;;;5036542;28;20221;-90
2023/03/30 04:31:33;;;;;;;51.40;46.53;;;9.30;93.90;;;;;;5018634;28;20169;-91
2023/03/30 04:34:01;;;;;;;51.50;47.03;;;9.20;93.90;;;;;;5019780;28;20233;-90
2023/03/30 04:36:27;;;;;;;53.27;48.47;;;9.20;93.90;;;;;;5020109;28;20655;-91
2023/03/30 04:39:00;;;;;;;51.60;46.33;;;9.20;93.90;;;;;;5021479;28;20235;-90
2023/03/30 04:41:34;;;;;;;49.03;44.77;;;9.20;93.90;;;;;;5020610;28;20154;-90
2023/03/30 04:44:02;;;;;;;47.03;42.37;;;9.20;93.90;;;;;;5020382;28;20161;-90
2023/03/30 04:46:28;;;;;;;48.77;44.37;;;9.20;93.90;;;;;;5019782;28;20236;-91
2023/03/30 04:48:53;;;;;;;50.33;45.97;;;9.20;93.80;;;;;;5036142;28;20205;-90
2023/03/30 04:51:19;;;;;;;54.07;49.20;;;9.20;93.90;;;;;;5037224;28;20177;-91
2023/03/30 04:53:45;;;;;;;52.43;47.60;;;9.20;93.80;;;;;;5020973;28;20188;-89
2023/03/30 04:56:11;;;;;;;51.60;47.17;;;9.20;93.90;;;;;;5022175;28;20217;-90
2023/03/30 04:58:36;;;;;;;50.83;46.37;;;9.20;93.80;;;;;;5017400;28;20224;-90
2023/03/30 05:01:02;;;;;;;52.60;47.63;;;9.20;93.80;;;;;;5017603;28;20192;-90
2023/03/30 05:03:29;;;;;;;54.27;49.57;;;9.20;93.80;;;;;;5018466;28;20184;-91
2023/03/30 05:05:54;;;;;;;51.63;46.90;;;9.20;93.80;;;;;;5019333;28;20169;-91
2023/03/30 05:08:20;;;;;;;50.73;46.23;;;9.20;93.80;;;;;;5018727;28;20196;-91
2023/03/30 05:10:45;;;;;;;51.07;46.50;;;9.20;93.80;;;;;;5020452;28;20269;-90
2023/03/30 05:13:11;;;;;;;47.80;43.37;;;9.20;93.70;;;;;;5016963;28;20150;-91
2023/03/30 05:15:37;;;;;;;47.73;43.10;;;9.30;93.60;;;;;;5018654;28;20161;-89
2023/03/30 05:18:03;;;;;;;46.60;42.53;;;9.30;93.60;;;;;;5021390;28;20304;-91
2023/03/30 05:20:28;;;;;;;43.67;39.67;;;9.30;93.50;;;;;;5020429;28;20178;-90
2023/03/30 05:22:54;;;;;;;41.03;36.77;;;9.30;93.50;;;;;;5016553;28;20204;-90
2023/03/30 05:25:20;;;;;;;43.43;39.50;;;9.40;93.30;;;;;;5020453;28;20220;-90
2023/03/30 05:27:45;;;;;;;42.10;38.13;;;9.50;93.20;;;;;;5020994;28;20185;-90
2023/03/30 05:30:11;;;;;;;40.80;36.97;;;9.50;93.20;;;;;;5020963;28;20208;-89
2023/03/30 05:32:37;;;;;;;39.43;35.60;;;9.50;93.10;;;;;;5016462;28;20192;-90
2023/03/30 05:35:03;;;;;;;40.50;36.77;;;9.50;93.00;;;;;;5016497;28;20177;-90
2023/03/30 05:37:28;;;;;;;39.60;35.83;;;9.50;93.00;;;;;;5016748;28;20181;-90
2023/03/30 05:39:54;;;;;;;41.90;37.80;;;9.60;93.10;;;;;;5018597;28;20275;-91
2023/03/30 05:42:20;;;;;;;40.63;36.90;;;9.50;93.20;;;;;;5016500;28;20204;-91
2023/03/30 05:44:45;;;;;;;41.70;37.43;;;9.60;93.30;;;;;;5013332;28;20249;-91
2023/03/30 05:47:11;;;;;;;41.20;36.90;;;9.70;93.40;;;;;;5016227;28;20164;-91
2023/03/30 05:49:37;;;;;;;43.80;40.03;;;9.70;93.50;;;;;;5010702;28;20209;-91
2023/03/30 05:52:02;;;;;;;43.47;40.00;;;9.70;93.60;;;;;;5004742;28;20186;-91
2023/03/30 05:54:28;;;;;;;41.90;38.43;;;9.80;93.60;;;;;;5001446;28;20690;-91
2023/03/30 05:56:54;;;;;;;41.43;38.00;;;9.80;93.60;;;;;;4999533;28;20184;-91
2023/03/30 05:59:20;;;;;;;43.13;39.50;;;9.80;93.70;;;;;;4999074;28;20221;-90
2023/03/30 06:01:46;;;;;;;43.00;39.43;;;9.80;93.70;;;;;;5004079;28;20173;-90
2023/03/30 06:04:12;;;;;;;44.83;41.00;;;9.80;93.70;;;;;;5025557;28;20199;-90
2023/03/30 06:06:37;;;;;;;47.20;43.37;;;9.80;93.70;;;;;;5003585;28;20181;-91
2023/03/30 06:09:04;;;;;;;48.73;44.90;;;9.80;93.70;;;;;;5019033;28;20205;-91
2023/03/30 06:11:30;;;;;;;49.90;45.57;;;9.90;93.80;;;;;;5001339;28;20185;-90
2023/03/30 06:13:56;;;;;;;50.30;46.03;;;9.90;93.80;;;;;;4999232;28;20174;-90
2023/03/30 06:16:22;;;;;;;52.70;48.37;;;9.90;93.90;;;;;;5015506;28;20227;-91
2023/03/30 06:18:47;;;;;;;50.77;46.33;;;9.90;93.90;;;;;;4998708;28;20190;-90
2023/03/30 06:21:13;;;;;;;51.63;47.20;;;10.00;93.90;;;;;;4999110;28;20174;-91
2023/03/30 06:23:40;;;;;;;51.40;47.20;;;10.00;94.00;;;;;;5016104;28;20173;-91
2023/03/30 06:26:06;;;;;;;49.93;45.83;;;10.00;94.00;;;;;;5026224;28;20170;-90
2023/03/30 06:28:32;;;;;;;53.73;49.33;;;10.00;94.10;;;;;;5007279;28;20189;-90
2023/03/30 06:31:00;;;;;;;50.97;46.97;;;10.20;94.20;;;;;;5007084;28;20201;-90
2023/03/30 06:33:26;;;;;;;52.53;48.20;;;10.30;94.30;;;;;;5009666;28;20190;-90
2023/03/30 06:35:53;;;;;;;51.00;46.13;;;10.50;94.20;;;;;;5008968;28;20674;-90
2023/03/30 06:38:20;;;;;;;50.30;46.37;;;10.50;94.10;;;;;;5007040;28;20224;-90
2023/03/30 06:40:46;;;;;;;43.57;40.10;;;10.60;93.90;;;;;;5008555;28;20181;-90
2023/03/30 06:43:17;;;;;;;41.93;38.47;;;10.80;93.60;;;;;;5008458;28;20188;-90
2023/03/30 06:45:48;;;;;;;40.90;37.50;;;10.80;93.40;;;;;;5012576;28;20201;-90
2023/03/30 06:48:13;;;;;;;39.40;36.03;;;10.90;93.00;;;;;;5008108;28;20260;-91
2023/03/30 06:50:39;;;;;;;36.83;33.67;;;11.10;92.50;;;;;;5010825;28;20244;-90
2023/03/30 06:53:05;;;;;;;37.60;34.17;;;11.20;92.40;;;;;;5029223;28;20197;-90
2023/03/30 06:55:31;;;;;;;35.50;32.40;;;11.30;92.10;;;;;;5009012;28;20211;-90
2023/03/30 06:57:57;;;;;;;36.10;33.40;;;11.30;91.70;;;;;;5010021;28;20261;-90
2023/03/30 07:00:22;;;;;;;36.57;33.63;;;11.30;91.50;;;;;;5016341;28;20189;-90
2023/03/30 07:02:48;;;;;;;35.60;32.53;;;11.30;91.30;;;;;;5010382;28;20196;-90
2023/03/30 07:05:14;;;;;;;33.80;31.33;;;11.40;91.10;;;;;;5010513;28;20176;-90
2023/03/30 07:07:40;;;;;;;32.47;29.67;;;11.40;91.00;;;;;;5011949;28;20193;-90
2023/03/30 07:10:09;;;;;;;31.23;28.70;;;11.40;90.50;;;;;;5009848;28;20208;-90
2023/03/30 07:12:35;;;;;;;30.10;27.70;;;11.50;90.10;;;;;;5013212;28;20169;-90
2023/03/30 07:15:01;;;;;;;30.17;28.00;;;11.50;90.10;;;;;;5012771;28;20169;-90
2023/03/30 07:17:27;;;;;;;28.47;26.20;;;11.50;89.90;;;;;;5009460;28;20170;-90
2023/03/30 07:19:53;;;;;;;26.03;23.73;;;11.60;89.70;;;;;;5012648;28;20182;-90
2023/03/30 07:22:18;;;;;;;26.37;24.17;;;11.70;89.40;;;;;;5012844;28;20208;-90
2023/03/30 07:24:44;;;;;;;26.77;24.40;;;11.70;89.40;;;;;;5018389;28;20216;-89
2023/03/30 07:27:09;;;;;;;25.63;23.40;;;11.80;89.20;;;;;;5015836;28;20173;-89
2023/03/30 07:29:35;;;;;;;25.60;23.23;;;11.80;88.90;;;;;;4998112;28;20310;-88
2023/03/30 07:32:02;;;;;;;23.77;21.47;;;11.90;88.70;;;;;;5016358;28;20200;-89
2023/03/30 07:34:28;;;;;;;24.37;22.20;;;11.90;88.60;;;;;;5025552;28;20212;-90
2023/03/30 07:36:53;;;;;;;25.03;22.80;;;12.00;88.70;;;;;;5012518;28;20256;-90
2023/03/30 07:39:19;;;;;;;25.33;22.90;;;12.10;88.90;;;;;;5000265;28;20217;-90
2023/03/30 07:41:45;;;;;;;24.67;22.77;;;12.10;88.50;;;;;;5017660;28;20173;-90
2023/03/30 07:44:10;;;;;;;24.33;22.13;;;12.10;88.70;;;;;;5017413;28;20170;-91
2023/03/30 07:46:36;;;;;;;24.77;22.80;;;12.20;88.10;;;;;;5006377;28;20189;-90
2023/03/30 07:49:01;;;;;;;25.97;23.73;;;12.30;88.10;;;;;;5010505;28;20213;-90
2023/03/30 07:51:27;;;;;;;26.57;24.20;;;12.30;88.50;;;;;;5008471;28;20173;-90
2023/03/30 07:53:52;;;;;;;27.20;24.80;;;12.20;88.70;;;;;;5025840;28;20280;-90
2023/03/30 07:56:18;;;;;;;26.10;23.80;;;12.20;88.70;;;;;;5006966;28;20178;-90
2023/03/30 07:58:44;;;;;;;23.77;21.77;;;12.20;88.60;;;;;;5006601;28;20220;-90
2023/03/30 08:01:09;;;;;;;27.73;20.43;;;12.20;88.40;;;;;;5003911;28;20694;-90
2023/03/30 08:03:36;;;;;;;22.63;20.33;;;12.30;87.80;;;;;;5000945;28;20188;-91
2023/03/30 08:06:03;;;;;;;22.53;20.37;;;12.30;87.40;;;;;;5000258;28;20184;-90
2023/03/30 08:08:30;;;;;;;23.73;19.17;;;12.30;87.60;;;;;;5007143;28;20193;-91
2023/03/30 08:10:55;;;;;;;21.53;19.17;;;12.30;87.20;;;;;;5003651;28;20205;-91
2023/03/30 08:13:21;;;;;;;22.73;20.30;;;12.30;87.30;;;;;;5007712;28;20169;-90
2023/03/30 08:15:47;;;;;;;23.13;20.83;;;12.30;87.70;;;;;;5003098;28;20173;-88
2023/03/30 08:18:13;;;;;;;21.00;19.37;;;12.40;87.90;;;;;;5014929;28;20741;-88
2023/03/30 08:20:40;;;;;;;20.40;18.27;;;12.50;87.30;;;;;;5014902;28;20204;-87
2023/03/30 08:23:07;;;;;;;19.57;17.77;;;12.70;87.30;;;;;;4997344;28;20715;-88
2023/03/30 08:25:33;;;;;;;21.50;19.57;;;12.80;87.30;;;;;;4997367;28;20208;-89
2023/03/30 08:27:59;;;;;;;20.47;18.73;;;12.80;87.40;;;;;;5015153;28;20193;-90
2023/03/30 08:30:26;;;;;;;20.97;19.20;;;12.80;86.80;;;;;;5016998;28;20203;-89
2023/03/30 08:32:52;;;;;;;22.77;17.60;;;12.90;87.30;;;;;;5019737;28;20249;-90
2023/03/30 08:35:19;;;;;;;22.30;20.33;;;13.00;86.30;;;;;;5017732;28;20600;-90
2023/03/30 08:37:44;;;;;;;22.40;20.30;;;13.00;87.10;;;;;;5002872;28;20209;-89
2023/03/30 08:40:11;;;;;;;21.73;19.67;;;13.00;87.00;;;;;;5019076;28;20244;-90
2023/03/30 08:42:49;;;;;;;22.33;18.73;;;13.10;87.40;;;;;;5012823;28;20177;-90
2023/03/30 08:45:15;;;;;;;22.67;20.60;;;13.20;86.90;;;;;;5011322;28;20598;-91
2023/03/30 08:47:47;;;;;;;22.80;20.77;;;13.50;88.00;;;;;;5005348;28;20702;-90
2023/03/30 08:50:16;;;;;;;20.97;18.90;;;13.70;87.40;;;;;;5005644;28;20237;-91
2023/03/30 08:52:42;;;;;;;20.57;18.60;;;13.70;86.10;;;;;;5000282;28;20174;-90
2023/03/30 08:55:23;;;;;;;19.00;17.40;;;13.80;86.30;;;;;;4997090;28;20586;-88
2023/03/30 08:57:54;;;;;;;18.90;17.17;;;13.90;85.90;;;;;;5014180;28;20251;-87
2023/03/30 09:00:37;;;;;;;20.53;18.53;;;13.90;84.80;;;;;;4997461;28;20565;-87
2023/03/30 09:03:30;;;;;;;20.40;18.37;;;13.80;85.60;;;;;;4997427;28;20713;-87
2023/03/30 09:06:10;;;;;;;19.00;17.07;;;13.60;85.60;;;;;;4988756;28;20193;-87
2023/03/30 09:08:37;;;;;;;19.97;18.20;;;13.50;85.50;;;;;;4996704;28;20706;-87
2023/03/30 09:11:10;;;;;;;20.00;17.83;;;13.50;85.70;;;;;;4996469;28;20564;-87
2023/03/30 09:13:38;;;;;;;19.60;17.57;;;13.50;85.60;;;;;;4996505;28;20165;-87
2023/03/30 09:16:21;;;;;;;17.60;15.77;;;13.60;85.30;;;;;;4996376;28;20234;-87
2023/03/30 09:18:52;;;;;;;17.93;15.93;;;13.70;85.20;;;;;;4996706;28;20228;-87
2023/03/30 09:21:21;;;;;;;17.80;16.30;;;13.80;85.50;;;;;;4996733;28;20169;-87
2023/03/30 09:23:47;;;;;;;16.43;14.80;;;13.90;85.70;;;;;;4996684;28;20181;-88
2023/03/30 09:26:40;;;;;;;17.33;15.80;;;14.00;84.80;;;;;;5013806;28;20178;-88
2023/03/30 09:29:23;;;;;;;18.00;16.27;;;13.90;85.10;;;;;;5013582;28;20204;-88
2023/03/30 09:32:13;;;;;;;21.77;17.40;;;13.70;85.40;;;;;;5013736;28;20154;-89
2023/03/30 09:34:59;;;;;;;27.33;22.83;;;13.40;86.40;;;;;;5013721;28;20165;-89
2023/03/30 09:37:25;;;;;;;24.97;22.67;;;13.00;87.90;;;;;;5013463;28;20193;-89
2023/03/30 09:39:50;;;;;;;30.13;27.67;;;12.80;89.20;;;;;;5014012;28;20585;-88
2023/03/30 09:42:38;;;;;;;28.70;26.57;;;12.60;90.20;;;;;;4995898;28;20184;-88
2023/03/30 09:45:27;;;;;;;32.77;29.97;;;12.50;91.00;;;;;;5013535;28;20162;-87
2023/03/30 09:47:53;;;;;;;32.70;30.27;;;12.50;91.60;;;;;;5013530;28;20203;-88
2023/03/30 09:50:27;;;;;;;30.53;28.27;;;12.60;91.80;;;;;;4995848;28;20631;-88
2023/03/30 09:53:02;;;;;;;30.03;27.43;;;12.70;91.40;;;;;;4996259;28;20175;-89
2023/03/30 09:55:35;;;;;;;27.77;25.27;;;12.80;91.10;;;;;;4995879;28;20187;-87
2023/03/30 09:58:17;;;;;;;29.90;27.43;;;12.80;90.80;;;;;;5013423;28;20247;-88
2023/03/30 10:00:44;;;;;;;28.97;26.37;;;12.80;90.80;;;;;;4998825;28;20551;-88
2023/03/30 10:03:19;;;;;;;29.23;26.83;;;12.80;90.60;;;;;;5017317;28;20206;-89
2023/03/30 10:06:00;;;;;;;30.33;27.83;;;12.80;90.40;;;;;;5017390;28;20161;-88
2023/03/30 11:03:59;;;;;;;19.42;14.35;;;14.90;77.20;;;;;;5013960;28;20197;-92
2023/03/30 11:06:44;;;;;;;16.70;14.38;;;14.90;77.20;;;;;;4996973;28;20194;-92
2023/03/30 11:09:23;;;;;;;19.20;14.80;;;15.20;76.20;;;;;;5015206;28;20217;-92
2023/03/30 11:11:56;;;;;;;15.85;14.32;;;14.80;76.30;;;;;;5014741;28;20162;-92
2023/03/30 11:14:31;;;;;;;16.10;14.30;;;14.30;76.70;;;;;;5015238;28;20209;-91
2023/03/30 11:17:06;;;;;;;15.00;13.40;;;14.20;77.20;;;;;;5017768;28;20169;-92
2023/03/30 11:20:20;;;;;;;14.17;12.70;;;14.00;78.20;;;;;;5017294;28;20197;-92
2023/03/30 11:23:25;;;;;;;18.63;13.37;;;14.00;78.40;;;;;;4980511;28;20187;-92
2023/03/30 11:26:11;;;;;;;20.40;13.80;;;14.20;78.20;;;;;;4995794;28;20192;-92
2023/03/30 11:28:58;;;;;;;19.00;13.00;;;14.20;77.70;;;;;;5016514;28;20213;-91
2023/03/30 11:31:50;;;;;;;16.03;13.00;;;14.10;79.00;;;;;;5017791;28;20193;-92
2023/03/30 11:34:56;;;;;;;23.20;13.97;;;14.00;78.20;;;;;;5015005;28;20180;-92
2023/03/30 11:37:58;;;;;;;22.40;14.77;;;13.80;79.30;;;;;;5013667;28;20181;-92
2023/03/30 11:40:29;;;;;;;16.73;13.50;;;13.50;82.10;;;;;;5013001;28;20162;-92
2023/03/30 11:43:57;;;;;;;22.03;15.33;;;12.70;86.00;;;;;;5020059;28;20162;-92
2023/03/30 12:51:20;;;;;;;22.13;14.53;;;13.60;76.60;;;;;;4995536;28;20233;-90
2023/03/30 12:54:28;;;;;;;18.80;12.50;;;13.60;76.70;;;;;;4997172;28;20170;-91
2023/03/30 12:57:28;;;;;;;21.00;14.30;;;13.50;77.20;;;;;;4994215;28;20169;-91
2023/03/30 13:00:06;;;;;;;18.87;13.60;;;13.60;76.80;;;;;;4968575;28;20533;-91
2023/03/30 13:02:48;;;;;;;14.93;13.63;;;13.50;76.00;;;;;;4974356;28;20540;-91
2023/03/30 13:05:23;;;;;;;19.40;14.23;;;13.60;75.30;;;;;;4977168;28;20209;-91
2023/03/30 13:07:51;;;;;;;17.73;15.57;;;13.80;74.20;;;;;;4974345;28;20217;-91
2023/03/30 13:10:28;;;;;;;16.83;14.77;;;13.80;73.40;;;;;;4973916;28;20233;-91
2023/03/30 13:13:04;;;;;;;17.30;13.57;;;13.80;73.30;;;;;;4974693;28;20178;-91
2023/03/30 13:15:50;;;;;;;18.90;14.37;;;14.10;73.60;;;;;;4974387;28;20580;-91
2023/03/30 13:18:16;;;;;;;19.93;13.77;;;13.90;73.60;;;;;;4975699;28;20623;-91
2023/03/30 13:20:44;;;;;;;17.00;15.13;;;13.70;75.20;;;;;;4976539;28;20206;-91
2023/03/30 13:23:11;;;;;;;14.73;13.10;;;13.60;73.80;;;;;;4974213;28;20184;-91
2023/03/30 13:25:44;;;;;;;17.43;13.97;;;13.60;74.10;;;;;;4975019;28;20190;-91
2023/03/30 13:28:31;;;;;;;15.10;13.50;;;13.50;73.30;;;;;;4974654;28;20206;-91
2023/03/30 13:31:20;;;;;;;16.43;14.77;;;13.40;73.50;;;;;;4973884;28;20297;-90
2023/03/30 13:33:53;;;;;;;17.23;15.53;;;13.50;73.20;;;;;;4962980;28;20198;-91
2023/03/30 13:36:23;;;;;;;15.90;14.23;;;13.50;72.20;;;;;;4977380;28;20170;-91
2023/03/30 13:39:07;;;;;;;15.37;14.03;;;13.50;72.30;;;;;;4976573;28;20190;-91
2023/03/30 13:41:45;;;;;;;16.03;14.43;;;13.50;71.90;;;;;;4973850;28;20656;-90
2023/03/30 13:44:27;;;;;;;14.73;13.63;;;13.50;72.00;;;;;;4975103;28;20172;-91
2023/03/30 13:47:06;;;;;;;16.10;14.37;;;13.30;71.50;;;;;;4974420;28;20198;-90
2023/03/30 13:49:49;;;;;;;16.13;13.20;;;13.30;71.90;;;;;;4973632;28;20214;-91
2023/03/30 13:52:26;;;;;;;15.30;13.93;;;13.30;73.90;;;;;;4974017;28;20163;-91
2023/03/30 13:54:52;;;;;;;15.23;13.73;;;13.30;73.10;;;;;;4975577;28;20171;-91
2023/03/30 13:57:21;;;;;;;15.53;14.00;;;13.40;74.10;;;;;;4976221;28;20205;-89
2023/03/30 13:59:53;;;;;;;15.27;13.43;;;13.30;72.30;;;;;;4973893;28;20174;-90
2023/03/30 14:02:21;;;;;;;14.77;13.00;;;13.20;72.90;;;;;;4975422;28;20174;-90
2023/03/30 14:04:48;;;;;;;21.27;13.03;;;13.20;74.20;;;;;;4977538;28;20537;-90
2023/03/30 14:07:16;;;;;;;15.63;14.03;;;13.10;74.30;;;;;;4976688;28;20171;-91
2023/03/30 14:10:05;;;;;;;17.07;13.43;;;13.00;73.80;;;;;;4975094;28;20203;-90
2023/03/30 14:12:31;;;;;;;14.57;13.13;;;13.00;74.70;;;;;;4975047;28;20171;-90
2023/03/30 14:14:57;;;;;;;17.77;12.80;;;13.00;75.20;;;;;;4973303;28;20253;-90
2023/03/30 14:17:24;;;;;;;16.93;12.80;;;13.10;74.90;;;;;;4973290;28;20167;-90
2023/03/30 14:20:38;;;;;;;17.07;12.03;;;13.20;75.60;;;;;;4973054;28;20230;-90
2023/03/30 14:23:04;;;;;;;13.90;11.43;;;13.20;75.90;;;;;;4973424;28;20232;-91
2023/03/30 14:25:39;;;;;;;19.97;12.20;;;13.40;76.40;;;;;;4974300;28;20171;-90
2023/03/30 14:28:18;;;;;;;21.03;12.77;;;13.50;76.70;;;;;;4973844;28;20741;-90
2023/03/30 14:30:52;;;;;;;14.87;11.70;;;13.50;76.60;;;;;;4972824;28;20300;-89
2023/03/30 14:33:18;;;;;;;14.73;12.90;;;13.50;76.30;;;;;;4974049;28;20171;-90
2023/03/30 14:35:49;;;;;;;13.80;11.90;;;13.50;76.30;;;;;;4976775;28;20179;-90
2023/03/30 14:38:24;;;;;;;16.90;13.20;;;13.60;76.80;;;;;;4974479;28;20191;-90
2023/03/30 14:40:52;;;;;;;17.97;13.07;;;13.60;75.60;;;;;;4973548;28;20182;-91
2023/03/30 14:43:24;;;;;;;20.23;13.60;;;13.70;76.00;;;;;;4974292;28;20187;-91
2023/03/30 14:45:52;;;;;;;22.90;13.33;;;13.80;75.20;;;;;;4975336;28;20159;-91
2023/03/30 14:48:29;;;;;;;17.20;12.97;;;13.70;75.30;;;;;;4977980;28;20202;-91
2023/03/30 14:50:55;;;;;;;23.30;13.87;;;13.70;75.60;;;;;;4976622;28;20210;-90
2023/03/30 14:53:25;;;;;;;18.87;12.80;;;13.70;75.20;;;;;;4976575;28;20213;-90
2023/03/30 14:55:55;;;;;;;20.93;13.30;;;13.80;75.80;;;;;;4978030;28;20238;-90